Apollo, Pennsylvania
Current Conditions -  °F | °C
As of 11:45 AM on Sunday 25 Jan 2015 (Local Time) from KLBE Reporting Station
Haze Haze  
Wind Chill: 28°   Ceiling: 700
Heat Index: 34°   Visibility: 4mi
Dew Point: 32°   Wind: 7mph
Humidity: 93%   Direction: 200°SSW
Pressure: 29.82"   Gusts: NA
Location:  40.58°N, 79.57°W
Report Text: KLBE 251645Z 20006KT 4SM BR OVC007 01/00 A2982
Loading
Personal Weather Stations






























Interactive Weather Map New forecast layout! Learn more

10-Day Weather Forecast

Advertisements
Track Severe Weather on mobile